createdAt,value
2022-12-09T06:24:00.792Z,2.50
2022-12-09T06:29:03.049Z,2.50
2022-12-09T06:34:05.458Z,2.60
2022-12-09T06:39:10.579Z,2.50
2022-12-09T06:44:17.172Z,2.50
2022-12-09T06:49:23.946Z,2.40
2022-12-09T06:54:26.097Z,2.50
2022-12-09T06:59:28.152Z,2.40
2022-12-09T07:04:30.412Z,2.40
2022-12-09T07:09:32.571Z,2.40
2022-12-09T07:14:34.547Z,2.30
2022-12-09T07:19:36.530Z,2.20
2022-12-09T07:24:40.114Z,2.20
2022-12-09T07:29:42.603Z,2.20
2022-12-09T07:34:45.004Z,2.20
2022-12-09T07:39:47.290Z,2.30
2022-12-09T07:44:49.743Z,2.20
2022-12-09T07:49:52.128Z,2.20
2022-12-09T07:54:55.277Z,2.20
2022-12-09T07:59:57.503Z,2.30
2022-12-09T08:05:00.253Z,2.30
2022-12-09T08:10:02.899Z,2.30
2022-12-09T08:15:06.330Z,2.30
2022-12-09T08:20:09.878Z,2.30
2022-12-09T08:25:12.499Z,2.30
2022-12-09T08:30:15.265Z,2.20
2022-12-09T08:35:18.994Z,2.20
2022-12-09T08:40:21.143Z,2.20
2022-12-09T08:45:23.044Z,2.20
2022-12-09T08:50:25.087Z,2.20
2022-12-09T08:55:27.734Z,2.20
2022-12-09T09:00:29.801Z,2.20
2022-12-09T09:05:32.133Z,2.20
2022-12-09T09:10:34.391Z,2.20
2022-12-09T09:15:39.719Z,2.10
2022-12-09T09:20:49.041Z,2.10
2022-12-09T09:25:51.121Z,2.10
2022-12-09T09:31:05.356Z,2.10
2022-12-09T09:36:11.519Z,2.10
2022-12-09T09:41:35.606Z,2.10
2022-12-09T09:46:41.594Z,2.20
2022-12-09T09:51:43.512Z,2.20
2022-12-09T09:56:57.319Z,2.20
2022-12-09T10:02:08.834Z,2.20
2022-12-09T10:07:20.141Z,2.20
2022-12-09T10:12:31.971Z,2.20
2022-12-09T10:17:39.402Z,2.20
2022-12-09T10:22:49.728Z,2.30
2022-12-09T10:28:18.126Z,2.30
2022-12-09T10:33:34.354Z,2.30
2022-12-09T10:38:38.346Z,2.30
2022-12-09T10:43:44.185Z,2.30
2022-12-09T10:48:46.567Z,2.40
2022-12-09T10:53:52.592Z,2.40
2022-12-09T10:59:13.714Z,2.40
2022-12-09T11:04:23.978Z,2.40
2022-12-09T11:09:33.373Z,2.50
2022-12-09T11:14:40.592Z,2.60
2022-12-09T11:19:43.613Z,2.60
2022-12-09T11:24:45.900Z,2.70
2022-12-09T11:29:48.188Z,2.70
2022-12-09T11:34:50.248Z,2.70
2022-12-09T11:39:52.313Z,2.70
2022-12-09T11:45:01.261Z,2.80
2022-12-09T11:50:16.402Z,2.80
2022-12-09T11:55:24.629Z,2.80
2022-12-09T12:00:29.967Z,2.80
2022-12-09T12:05:34.221Z,2.70
2022-12-09T12:10:40.527Z,2.70
2022-12-09T12:16:00.947Z,2.70
2022-12-09T12:21:19.812Z,2.70
2022-12-09T12:26:25.423Z,2.70
2022-12-09T12:31:33.928Z,2.70
2022-12-09T12:36:35.810Z,2.80
2022-12-09T12:41:52.511Z,2.70
2022-12-09T12:47:15.722Z,2.60
2022-12-09T12:52:55.939Z,2.70
2022-12-09T12:58:09.549Z,2.60
2022-12-09T13:03:14.335Z,2.70
2022-12-09T13:08:26.325Z,2.70
2022-12-09T13:13:37.529Z,2.70
2022-12-09T13:18:40.011Z,2.70
2022-12-09T13:24:00.115Z,2.80
2022-12-09T13:29:30.217Z,2.80
2022-12-09T13:34:35.438Z,2.80
2022-12-09T13:39:47.339Z,2.70
2022-12-09T13:44:49.208Z,2.70
2022-12-09T13:49:59.680Z,2.60
2022-12-09T13:55:01.536Z,2.70
2022-12-09T14:00:06.366Z,2.60
2022-12-09T14:05:14.050Z,2.60
2022-12-09T14:10:35.484Z,2.60
2022-12-09T14:15:38.584Z,2.60
2022-12-09T14:20:40.638Z,2.70
2022-12-09T14:25:57.058Z,2.60
2022-12-09T14:31:04.989Z,2.50
2022-12-09T14:36:13.067Z,2.50
2022-12-09T14:41:14.839Z,2.50
2022-12-09T14:46:24.668Z,2.50
2022-12-09T14:51:34.769Z,2.50
2022-12-09T14:56:36.681Z,2.50
2022-12-09T15:01:49.478Z,2.50
2022-12-09T15:07:10.619Z,2.40
2022-12-09T15:12:12.480Z,2.40
2022-12-09T15:17:43.467Z,2.40
2022-12-09T15:22:52.827Z,2.40
2022-12-09T15:28:03.763Z,2.40
2022-12-09T15:33:18.157Z,2.30
2022-12-09T15:38:20.318Z,2.30
2022-12-09T15:43:22.185Z,2.20
2022-12-09T15:48:29.448Z,2.20
2022-12-09T15:53:36.190Z,2.20
2022-12-09T15:58:43.954Z,2.10
2022-12-09T16:03:49.277Z,2.00
2022-12-09T16:08:51.319Z,2.00
2022-12-09T16:14:00.403Z,1.90
2022-12-09T16:19:02.296Z,1.90
2022-12-09T16:24:13.725Z,1.80
2022-12-09T16:29:29.074Z,1.80
2022-12-09T16:34:31.033Z,1.70
2022-12-09T16:39:33.898Z,1.60
2022-12-09T16:44:36.993Z,1.60
2022-12-09T16:49:39.988Z,1.60
2022-12-09T16:54:44.069Z,1.60
2022-12-09T16:59:46.500Z,1.50
2022-12-09T17:04:48.755Z,1.40
